Anthony, NM

12:14 PM MDT on May 25, 2019 (GMT -0600)
woodward was | | Change Station
Active Advisory: Fire Weather Watch

Elev 3792 ft 32.08 °N, 106.64 °W | Updated 41 seconds ago

Clear
Clear
88.2 °F
Feels Like 85 °F
N
9.8
Wind Variable Wind from West
Gusts 15.7 mph

Today
High -- | Low -- °F
--% Chance of Precip.
Yesterday
High -- | Low -- °F
Precip. -- in
Pressure 29.81 in
Visibility 10.0 miles
Clouds Clear
Heat Index 85 °F
Dew Point 39 °F
Humidity 18%
Rainfall 0.00 in
Snow Depth Not available.
6:03 AM 8:03 PM
Waning Gibbous, 59% visible
METAR KBIF 251658Z AUTO 22009KT 10SM CLR 28/M01 A2999 RMK AO2 SLP092 T02781010 $
Pressure 29.81 in
Visibility 10.0 miles
Clouds Clear
Heat Index 85 °F
Dew Point 39 °F
Humidity 18%
Rainfall 0.00 in
Snow Depth Not available.
6:03 AM 8:03 PM
Waning Gibbous, 59% visible
METAR KBIF 251658Z AUTO 22009KT 10SM CLR 28/M01 A2999 RMK AO2 SLP092 T02781010 $

Get Your Daily Forecast Email!

Thanks for signing up!

Be on the lookout for a verification email in your inbox.

You'll start receiving severe weather alerts in your inbox..

×

10-Day Weather Forecast

Almanac

Astronomy

May. 25, 2019 Rise Set
Actual Time
Civil Twilight
Nautical Twilight
Astronomical Twilight
Moon
Length of Visible Light
Length of Day
Tomorrow will be .
, % of the Moon is Illuminated

Today's Extremes

State Highs State Lows

Community

WunderPhotos

Category 6

Welcome to Category 6. This is the collective home for Weather Underground's featured writeups by Dr. Jeff Masters (right), Bob Henson (left), Chris Burt, and other regular contributors.

Nearby

Air Quality

  Air Quality AQ Index Pollutant
Not available.

Snow Depth

Station Depth Elevation

Earthquake Activity

City Distance Mag. Time & Date
Minimum magnitude displayed is 2.5.

Coastal Water Temperatures

Place Temperature

Stations

Nearby Weather Stations

Station Location Temp. Windchill Dew Point Humidity Wind Precip. Elev Updated Type
                   

Watches & Warnings

Fire Weather Watch
Issued: 6:39 AM MDT May. 25, 2019 – National Weather Service

... Fire Weather Watch remains in effect from Sunday afternoon
through Sunday evening for strong winds and low relative
humidities for fire weather zones 110, 111, 112, and 113...

* affected area... fire weather zone 110. Fire weather zone 111.
Fire weather zone 112. Fire weather zone 113.

* Wind... southwest 20 to 30 mph with gusts to 40 mph.

* Humidity... 7 to 13 percent.

* Highest threat... is located along and west of the Continental
Divide.

* Impacts... any fires that develop will likely spread rapidly.
Outdoor burning is not recommended.

Precautionary/preparedness actions...

A Fire Weather Watch means that critical fire weather conditions
are forecast to occur. Listen for later forecasts and possible
red flag warnings.


26